createdAt,value
2022-08-14T00:02:07.618Z,9.80
2022-08-14T00:07:13.728Z,10.20
2022-08-14T00:12:24.216Z,7.70
2022-08-14T00:17:28.150Z,8.90
2022-08-14T00:22:56.409Z,6.80
2022-08-14T00:27:55.661Z,6.10
2022-08-14T00:33:00.372Z,9.30
2022-08-14T00:38:08.161Z,8.50
2022-08-14T00:43:12.146Z,8.40
2022-08-14T00:48:34.406Z,8.90
2022-08-14T00:53:42.937Z,7.70
2022-08-14T00:58:48.558Z,6.20
2022-08-14T01:03:54.059Z,6.90
2022-08-14T01:08:59.666Z,7.90
2022-08-14T01:14:25.537Z,7.00
2022-08-14T01:19:48.071Z,6.70
2022-08-14T01:24:53.588Z,5.80
2022-08-14T01:30:04.350Z,4.90
2022-08-14T01:35:20.488Z,5.10
2022-08-14T01:40:36.859Z,6.00
2022-08-14T01:45:49.211Z,7.60
2022-08-14T01:51:19.081Z,8.50
2022-08-14T01:56:39.714Z,6.70
2022-08-14T02:01:51.450Z,8.00
2022-08-14T02:07:03.407Z,8.10
2022-08-14T02:12:09.823Z,6.80
2022-08-14T02:17:23.944Z,5.80
2022-08-14T02:22:29.158Z,6.30
2022-08-14T02:28:21.922Z,9.30
2022-08-14T02:33:01.664Z,8.80
2022-08-14T02:38:05.140Z,14.00
2022-08-14T02:43:08.964Z,7.40
2022-08-14T02:49:04.240Z,9.10
2022-08-14T02:53:45.710Z,11.50
2022-08-14T02:58:51.770Z,8.60
2022-08-14T03:03:59.583Z,9.80
2022-08-14T03:09:05.312Z,6.30
2022-08-14T03:14:11.733Z,8.40
2022-08-14T03:19:19.702Z,5.80
2022-08-14T03:24:23.748Z,6.50
2022-08-14T03:29:29.479Z,7.10
2022-08-14T03:34:47.430Z,5.40
2022-08-14T03:39:53.397Z,7.80
2022-08-14T03:45:26.345Z,6.80
2022-08-14T03:50:27.792Z,6.90
2022-08-14T03:55:34.640Z,6.10
2022-08-14T04:00:44.683Z,9.20
2022-08-14T04:05:48.917Z,8.70
2022-08-14T04:10:53.176Z,6.30
2022-08-14T04:16:02.204Z,5.50
2022-08-14T04:21:08.706Z,6.60
2022-08-14T04:26:27.194Z,10.20
2022-08-14T04:32:58.358Z,9.40
2022-08-14T04:37:24.962Z,6.60
2022-08-14T04:42:51.657Z,6.10
2022-08-14T04:48:13.598Z,4.90
2022-08-14T04:53:43.570Z,4.40
2022-08-14T04:58:48.279Z,5.10
2022-08-14T05:03:52.000Z,8.10
2022-08-14T05:08:57.425Z,12.00
2022-08-14T05:14:34.216Z,5.70
2022-08-14T05:19:29.862Z,5.00
2022-08-14T05:24:35.858Z,7.30
2022-08-14T05:29:45.142Z,9.20
2022-08-14T05:34:48.521Z,8.70
2022-08-14T05:39:51.972Z,6.00
2022-08-14T05:44:56.114Z,3.90
2022-08-14T05:49:59.888Z,5.50
2022-08-14T05:55:07.020Z,7.50
2022-08-14T06:00:11.268Z,3.60
2022-08-14T06:05:29.190Z,7.60
2022-08-14T06:10:32.906Z,4.20
2022-08-14T06:15:37.954Z,6.40
2022-08-14T06:20:43.818Z,5.20
2022-08-14T06:25:52.668Z,7.40
2022-08-14T06:30:57.197Z,7.90
2022-08-14T06:36:01.121Z,6.00
2022-08-14T06:41:04.436Z,7.20
2022-08-14T06:46:23.041Z,3.10
2022-08-14T06:56:54.106Z,5.70
2022-08-14T07:02:17.953Z,6.80
2022-08-14T07:07:22.836Z,4.50
2022-08-14T07:12:52.094Z,4.70
2022-08-14T07:17:52.363Z,5.10
2022-08-14T07:23:06.998Z,7.60
2022-08-14T07:28:33.591Z,3.60
2022-08-14T07:33:50.197Z,5.20
2022-08-14T07:38:53.870Z,7.40
2022-08-14T07:43:57.686Z,6.30
2022-08-14T07:49:02.419Z,5.00
2022-08-14T07:54:11.111Z,8.40
2022-08-14T07:59:17.189Z,3.90
2022-08-14T08:04:25.290Z,3.50
2022-08-14T08:09:34.265Z,7.30
2022-08-14T08:14:55.617Z,5.20
2022-08-14T08:20:02.219Z,5.00
2022-08-14T08:25:13.882Z,8.30
2022-08-14T08:30:18.226Z,6.30
2022-08-14T08:35:46.977Z,6.60
2022-08-14T08:41:00.073Z,7.00
2022-08-14T08:46:21.285Z,4.10
2022-08-14T08:51:34.430Z,4.90
2022-08-14T08:56:40.474Z,4.10
2022-08-14T09:01:56.494Z,6.20
2022-08-14T09:07:11.003Z,7.90
2022-08-14T09:12:15.390Z,8.00
2022-08-14T09:17:19.293Z,6.40
2022-08-14T09:22:35.936Z,7.80
2022-08-14T09:27:45.907Z,7.30
2022-08-14T09:33:12.534Z,6.10
2022-08-14T09:38:33.383Z,9.90
2022-08-14T09:44:00.872Z,7.40
2022-08-14T09:49:16.297Z,7.20
2022-08-14T09:54:23.363Z,7.30
2022-08-14T09:59:33.547Z,6.90
2022-08-14T10:04:46.185Z,6.80
2022-08-14T10:09:59.871Z,9.60
2022-08-14T10:15:18.993Z,12.50
2022-08-14T10:20:40.383Z,5.50
2022-08-14T10:25:50.981Z,7.60
2022-08-14T10:30:56.577Z,5.70
2022-08-14T10:36:01.830Z,9.70
2022-08-14T10:41:15.924Z,7.10
2022-08-14T10:46:59.136Z,6.80
2022-08-14T10:51:43.728Z,9.30
2022-08-14T10:56:52.140Z,6.00
2022-08-14T11:01:57.166Z,7.00
2022-08-14T11:07:01.492Z,9.60
2022-08-14T11:12:33.705Z,6.00
2022-08-14T11:17:31.773Z,10.10
2022-08-14T11:22:56.674Z,10.10
2022-08-14T11:28:01.572Z,7.60
2022-08-14T11:33:06.515Z,8.80
2022-08-14T11:38:12.898Z,8.20
2022-08-14T11:43:16.742Z,10.30
2022-08-14T11:49:02.387Z,7.00
2022-08-14T11:54:13.930Z,11.60
2022-08-14T11:59:26.604Z,11.60
2022-08-14T12:04:37.790Z,8.10
2022-08-14T12:09:42.905Z,7.30
2022-08-14T12:14:57.788Z,9.80
2022-08-14T12:20:06.421Z,7.80
2022-08-14T12:25:20.184Z,8.40
2022-08-14T12:30:43.894Z,11.40
2022-08-14T12:35:49.537Z,15.60
2022-08-14T12:40:55.997Z,17.30
2022-08-14T12:45:59.538Z,14.70
2022-08-14T12:51:04.589Z,15.70
2022-08-14T12:56:21.762Z,16.80
2022-08-14T13:01:56.727Z,9.70
2022-08-14T13:07:07.482Z,12.60
2022-08-14T13:12:35.243Z,11.80
2022-08-14T13:17:46.415Z,13.40
2022-08-14T13:22:50.372Z,10.20
2022-08-14T13:27:59.699Z,11.10
2022-08-14T13:33:05.979Z,11.00
2022-08-14T13:38:22.845Z,11.90
2022-08-14T13:43:36.505Z,10.00
2022-08-14T13:48:41.124Z,14.30
2022-08-14T13:54:08.171Z,9.70
2022-08-14T13:59:20.079Z,14.10
2022-08-14T14:04:27.923Z,11.80
2022-08-14T14:09:50.805Z,12.40
2022-08-14T14:14:56.199Z,15.70
2022-08-14T14:20:00.191Z,13.00
2022-08-14T14:25:07.468Z,11.70
2022-08-14T14:30:18.749Z,14.40
2022-08-14T14:35:39.721Z,16.40
2022-08-14T14:40:54.070Z,15.90
2022-08-14T14:46:03.944Z,10.50
2022-08-14T14:51:09.712Z,8.80
2022-08-14T14:56:50.489Z,9.70
2022-08-14T15:01:38.066Z,10.00
2022-08-14T15:06:47.586Z,13.30
2022-08-14T15:11:51.927Z,8.90
2022-08-14T15:16:55.346Z,10.50
2022-08-14T15:22:03.674Z,7.80
2022-08-14T15:27:08.425Z,8.50
2022-08-14T15:32:12.035Z,10.90
2022-08-14T15:37:16.687Z,13.20
2022-08-14T15:42:23.204Z,12.50
2022-08-14T15:47:29.237Z,12.60
2022-08-14T15:52:45.220Z,10.90
2022-08-14T15:58:02.004Z,15.60
2022-08-14T16:03:09.896Z,14.60
2022-08-14T16:08:29.256Z,15.20
2022-08-14T16:13:43.547Z,19.00
2022-08-14T16:18:48.343Z,15.80
2022-08-14T16:23:53.740Z,15.60
2022-08-14T16:29:05.053Z,13.90
2022-08-14T16:34:43.667Z,16.70
2022-08-14T16:39:38.980Z,17.60
2022-08-14T16:44:44.277Z,14.40
2022-08-14T16:50:05.077Z,14.80
2022-08-14T16:55:13.774Z,12.70
2022-08-14T17:00:44.178Z,15.90
2022-08-14T17:05:48.874Z,16.60
2022-08-14T17:10:52.534Z,15.20
2022-08-14T17:16:24.644Z,13.50
2022-08-14T17:21:41.515Z,33.70
2022-08-14T17:26:49.066Z,20.10
2022-08-14T17:32:21.902Z,31.60
2022-08-14T17:37:44.906Z,18.00
2022-08-14T17:42:51.450Z,16.60
2022-08-14T17:47:59.338Z,14.90
2022-08-14T17:53:03.159Z,12.90
2022-08-14T17:58:21.580Z,15.50
2022-08-14T18:03:50.748Z,15.80
2022-08-14T18:08:55.314Z,18.00
2022-08-14T18:14:00.944Z,20.80
2022-08-14T18:19:04.808Z,15.40
2022-08-14T18:24:20.137Z,18.00
2022-08-14T18:29:35.034Z,19.30
2022-08-14T18:34:50.724Z,21.30
2022-08-14T18:40:15.400Z,20.50
2022-08-14T18:45:28.543Z,22.80
2022-08-14T18:50:33.590Z,20.60
2022-08-14T18:55:37.694Z,17.00
2022-08-14T19:00:58.662Z,19.20
2022-08-14T19:06:10.475Z,18.50
2022-08-14T19:11:40.867Z,24.60
2022-08-14T19:16:48.248Z,21.40
2022-08-14T19:21:58.099Z,18.70
2022-08-14T19:27:23.803Z,18.00
2022-08-14T19:32:40.307Z,17.50
2022-08-14T19:37:55.355Z,17.50
2022-08-14T19:43:00.784Z,16.50
2022-08-14T19:48:14.355Z,17.20
2022-08-14T19:53:20.786Z,17.40
2022-08-14T19:58:36.785Z,17.00
2022-08-14T20:04:00.586Z,21.90
2022-08-14T20:11:06.406Z,18.80
2022-08-14T20:14:37.101Z,18.60
2022-08-14T20:19:41.467Z,20.30
2022-08-14T20:24:47.526Z,16.10
2022-08-14T20:30:34.658Z,15.80
2022-08-14T20:35:53.761Z,17.00
2022-08-14T20:40:59.498Z,16.10
2022-08-14T20:46:11.733Z,15.80
2022-08-14T20:51:24.392Z,15.70
2022-08-14T20:56:30.542Z,16.90
2022-08-14T21:01:38.443Z,20.10
2022-08-14T21:07:23.921Z,17.40
2022-08-14T21:12:05.647Z,18.20
2022-08-14T21:17:09.778Z,16.10
2022-08-14T21:22:13.703Z,16.50
2022-08-14T21:27:20.232Z,15.60
2022-08-14T21:32:50.658Z,17.10
2022-08-14T21:38:01.920Z,17.00
2022-08-14T21:43:05.692Z,19.00
2022-08-14T21:48:13.778Z,19.70
2022-08-14T21:53:17.087Z,16.00
2022-08-14T21:58:54.133Z,18.00
2022-08-14T22:03:46.925Z,16.80
2022-08-14T22:09:00.504Z,16.70
2022-08-14T22:14:26.075Z,16.90
2022-08-14T22:19:47.184Z,17.60
2022-08-14T22:25:00.224Z,20.40
2022-08-14T22:30:13.242Z,17.90
2022-08-14T22:35:23.364Z,19.40
2022-08-14T22:41:02.086Z,16.90
2022-08-14T22:45:55.154Z,17.30
2022-08-14T22:50:59.878Z,18.60
2022-08-14T22:56:04.414Z,15.50
2022-08-14T23:01:13.147Z,17.80
2022-08-14T23:07:02.052Z,17.50
2022-08-14T23:11:43.626Z,20.00
2022-08-14T23:16:47.657Z,21.00
2022-08-14T23:21:53.114Z,18.50
2022-08-14T23:26:58.267Z,19.50
2022-08-14T23:32:02.093Z,19.50
2022-08-14T23:37:05.916Z,18.70
2022-08-14T23:42:11.586Z,19.00
2022-08-14T23:47:26.414Z,18.70
2022-08-14T23:52:56.179Z,18.00
2022-08-14T23:58:02.165Z,23.20
